Time;durP1;ratioP1;P1;durP2;ratioP2;P2;SDS_P1;SDS_P2;PMS_P1;PMS_P2;Temp;Humidity;BMP_temperature;BMP_pressure;BME280_temperature;BME280_humidity;BME280_pressure;Samples;Min_cycle;Max_cycle;Signal;HPM_P1;HPM_P2
2022/04/08 00:00:47;;;;;;;3.95;1.35;;;10.90;82.30;;;;;;5038493;28;20075;-79
2022/04/08 00:03:12;;;;;;;3.53;1.00;;;10.90;82.40;;;;;;5054884;28;20036;-79
2022/04/08 00:05:38;;;;;;;4.65;1.05;;;10.90;82.30;;;;;;5076224;28;20059;-79
2022/04/08 00:08:04;;;;;;;3.78;1.13;;;10.90;82.40;;;;;;5038682;28;20056;-79
2022/04/08 00:10:29;;;;;;;5.18;1.10;;;10.90;82.20;;;;;;5058258;28;20052;-79
2022/04/08 00:12:55;;;;;;;4.85;1.00;;;10.90;82.50;;;;;;5074097;28;20048;-79
2022/04/08 00:15:21;;;;;;;4.07;1.20;;;10.90;82.20;;;;;;5051593;28;20024;-79
2022/04/08 00:17:46;;;;;;;3.35;1.00;;;10.90;82.20;;;;;;5038588;28;20036;-79
2022/04/08 00:20:12;;;;;;;4.00;0.90;;;10.90;82.00;;;;;;5057154;28;20470;-79
2022/04/08 00:22:41;;;;;;;4.32;1.20;;;10.90;82.20;;;;;;5074215;28;20425;-79
2022/04/08 00:25:08;;;;;;;4.40;1.00;;;10.90;81.90;;;;;;5066131;28;20481;-79
2022/04/08 00:27:34;;;;;;;4.72;1.30;;;10.90;81.90;;;;;;5047042;28;20490;-79
2022/04/08 00:29:59;;;;;;;5.88;1.17;;;10.90;82.10;;;;;;5051725;28;20052;-78
2022/04/08 00:32:26;;;;;;;5.05;1.08;;;10.90;82.10;;;;;;5075651;28;20035;-79
2022/04/08 00:34:52;;;;;;;4.63;1.10;;;10.90;82.20;;;;;;5053798;28;20013;-79
2022/04/08 00:37:18;;;;;;;5.05;1.20;;;10.80;82.10;;;;;;5050421;28;20108;-79
2022/04/08 00:39:43;;;;;;;4.22;1.13;;;10.90;82.30;;;;;;5042748;28;20474;-79
2022/04/08 00:42:13;;;;;;;3.03;0.95;;;10.90;82.30;;;;;;5062829;28;20036;-79
2022/04/08 00:44:38;;;;;;;5.85;1.08;;;10.90;82.30;;;;;;5043151;28;20025;-78
2022/04/08 00:47:04;;;;;;;4.70;0.98;;;10.90;82.30;;;;;;5046453;28;20032;-78
2022/04/08 00:49:31;;;;;;;4.43;1.20;;;10.90;82.00;;;;;;5050395;28;20397;-79
2022/04/08 00:52:00;;;;;;;6.38;1.75;;;10.90;82.00;;;;;;5046828;28;20476;-78
2022/04/08 00:54:26;;;;;;;5.03;1.23;;;10.80;82.00;;;;;;5046949;28;20033;-78
2022/04/08 00:56:52;;;;;;;4.72;1.13;;;10.90;82.00;;;;;;5059962;28;20456;-79
2022/04/08 00:59:18;;;;;;;3.33;1.10;;;10.90;82.00;;;;;;5037032;28;20374;-78
2022/04/08 01:01:44;;;;;;;5.88;1.13;;;10.90;82.10;;;;;;5075984;28;20020;-77
2022/04/08 01:04:09;;;;;;;6.25;1.38;;;10.90;82.00;;;;;;5039495;28;20056;-79
2022/04/08 01:06:35;;;;;;;5.78;1.13;;;10.90;82.30;;;;;;5037146;28;20025;-79
2022/04/08 01:09:01;;;;;;;5.95;1.25;;;10.80;82.10;;;;;;5063133;28;20474;-78
2022/04/08 01:11:27;;;;;;;4.35;1.30;;;10.90;82.00;;;;;;5067399;28;20051;-79
2022/04/08 01:13:52;;;;;;;5.63;1.20;;;10.90;82.30;;;;;;5043148;28;20025;-79
2022/04/08 01:16:19;;;;;;;5.32;1.40;;;10.90;82.00;;;;;;5053676;28;20086;-79
2022/04/08 01:18:45;;;;;;;6.07;1.38;;;10.90;82.20;;;;;;5068618;28;20029;-79
2022/04/08 01:21:10;;;;;;;6.28;1.33;;;10.90;82.10;;;;;;5041391;28;20405;-79
2022/04/08 01:23:36;;;;;;;4.80;1.15;;;10.90;82.00;;;;;;5050470;28;20040;-79
2022/04/08 01:26:06;;;;;;;6.88;1.23;;;10.90;82.30;;;;;;5053729;28;20503;-78
2022/04/08 01:28:33;;;;;;;5.55;1.15;;;10.90;82.20;;;;;;5052268;28;20029;-79
2022/04/08 01:30:59;;;;;;;5.53;1.10;;;10.90;82.10;;;;;;5052149;28;20052;-79
2022/04/08 01:33:24;;;;;;;6.53;1.10;;;10.90;82.30;;;;;;5059246;28;20037;-79
2022/04/08 01:35:50;;;;;;;4.35;1.00;;;10.90;82.10;;;;;;5071043;28;20020;-79
2022/04/08 01:38:15;;;;;;;6.43;0.98;;;10.90;82.10;;;;;;5047043;28;20378;-79
2022/04/08 01:40:41;;;;;;;6.63;1.20;;;10.90;82.10;;;;;;5043061;28;20037;-78
2022/04/08 01:43:07;;;;;;;3.63;1.08;;;10.80;82.00;;;;;;5059254;28;20036;-78
2022/04/08 01:45:32;;;;;;;3.92;0.98;;;10.80;81.90;;;;;;5046182;28;20020;-79
2022/04/08 01:47:58;;;;;;;4.50;0.80;;;10.80;82.00;;;;;;5060038;28;20024;-79
2022/04/08 01:50:23;;;;;;;4.30;1.25;;;10.90;82.00;;;;;;5053218;28;20021;-79
2022/04/08 01:52:49;;;;;;;4.32;0.88;;;10.90;82.10;;;;;;5041158;28;20047;-79
2022/04/08 01:55:15;;;;;;;6.28;1.08;;;10.90;81.90;;;;;;5060968;28;20025;-78
2022/04/08 01:57:41;;;;;;;3.63;0.75;;;10.90;81.90;;;;;;5078871;28;20047;-78
2022/04/08 02:00:11;;;;;;;4.03;0.95;;;10.80;81.80;;;;;;5043868;28;20033;-79
2022/04/08 02:02:37;;;;;;;4.05;0.90;;;10.90;81.90;;;;;;5068808;28;20032;-78
2022/04/08 02:05:03;;;;;;;4.07;0.88;;;10.90;82.00;;;;;;5058658;28;20017;-79
2022/04/08 02:07:28;;;;;;;4.25;0.90;;;10.90;82.00;;;;;;5040656;28;20067;-79
2022/04/08 02:09:54;;;;;;;3.90;0.90;;;10.80;82.00;;;;;;5043954;28;20028;-79
2022/04/08 02:12:20;;;;;;;3.45;0.98;;;10.90;81.90;;;;;;5040995;28;20025;-78
2022/04/08 02:14:46;;;;;;;4.60;0.90;;;10.90;82.20;;;;;;5055748;28;20024;-79
2022/04/08 02:17:11;;;;;;;4.63;0.95;;;10.80;82.00;;;;;;5049845;28;20031;-79
2022/04/08 02:19:37;;;;;;;2.08;0.75;;;10.90;82.20;;;;;;5046360;28;20021;-79
2022/04/08 02:22:03;;;;;;;3.70;0.85;;;10.90;82.20;;;;;;5051165;28;20521;-79
2022/04/08 02:24:29;;;;;;;2.30;0.60;;;10.90;81.90;;;;;;5069042;28;20025;-79
2022/04/08 02:26:55;;;;;;;3.78;0.82;;;10.90;81.90;;;;;;5060443;28;20051;-78
2022/04/08 02:29:21;;;;;;;3.95;0.80;;;10.90;81.90;;;;;;5060931;28;20032;-78
2022/04/08 02:31:46;;;;;;;3.97;0.70;;;10.80;82.00;;;;;;5067134;28;20028;-79
2022/04/08 02:34:12;;;;;;;2.92;0.82;;;10.90;82.10;;;;;;5047320;28;20104;-80
2022/04/08 02:36:37;;;;;;;1.42;0.70;;;10.80;82.10;;;;;;5065109;28;20055;-79
2022/04/08 02:39:03;;;;;;;4.00;0.70;;;10.90;82.00;;;;;;5056014;28;20040;-79
2022/04/08 02:41:28;;;;;;;2.63;0.70;;;10.80;81.90;;;;;;5077613;28;20497;-79
2022/04/08 02:43:54;;;;;;;2.55;0.60;;;10.90;82.10;;;;;;5056808;28;20132;-79
2022/04/08 02:46:19;;;;;;;3.00;0.70;;;10.80;82.00;;;;;;5077698;28;20056;-79
2022/04/08 02:48:45;;;;;;;3.58;0.95;;;10.80;82.00;;;;;;5077650;28;20027;-79
2022/04/08 02:51:10;;;;;;;3.03;0.80;;;10.90;81.80;;;;;;5045970;28;20021;-78
2022/04/08 02:53:36;;;;;;;2.20;0.60;;;10.90;81.90;;;;;;5051425;28;20082;-78
2022/04/08 02:56:01;;;;;;;2.42;0.80;;;10.90;81.80;;;;;;5059748;28;20033;-78
2022/04/08 02:58:27;;;;;;;2.78;0.60;;;10.80;81.50;;;;;;5063792;28;20072;-78
2022/04/08 03:00:53;;;;;;;3.13;0.57;;;10.90;81.70;;;;;;5049914;28;20033;-79
2022/04/08 03:03:18;;;;;;;4.10;0.70;;;10.90;81.80;;;;;;5057780;28;20024;-79
2022/04/08 03:05:43;;;;;;;2.90;0.65;;;10.80;81.70;;;;;;5049634;28;20029;-79
2022/04/08 03:08:09;;;;;;;3.22;0.65;;;10.80;81.60;;;;;;5039196;28;20096;-79
2022/04/08 03:10:35;;;;;;;1.88;0.65;;;10.80;81.60;;;;;;5057478;28;20100;-79
2022/04/08 03:13:00;;;;;;;1.92;0.52;;;10.80;81.50;;;;;;5056095;28;20111;-79
2022/04/08 03:15:26;;;;;;;2.47;0.68;;;10.80;81.50;;;;;;5047925;28;20035;-79
2022/04/08 03:17:51;;;;;;;1.10;0.35;;;10.90;81.70;;;;;;5059229;28;20059;-78
2022/04/08 03:20:17;;;;;;;1.85;0.52;;;10.90;81.50;;;;;;5058021;28;20115;-79
2022/04/08 03:22:43;;;;;;;2.05;0.60;;;10.80;81.50;;;;;;5059192;28;20112;-79
2022/04/08 03:25:09;;;;;;;3.95;0.82;;;10.80;81.40;;;;;;5087827;22;20091;-76
2022/04/08 03:27:35;;;;;;;1.25;0.40;;;10.90;81.50;;;;;;5054975;28;20024;-76
2022/04/08 03:30:00;;;;;;;2.38;0.70;;;10.80;81.30;;;;;;5073069;28;20115;-78
2022/04/08 03:32:26;;;;;;;1.50;0.47;;;10.80;81.20;;;;;;5066154;28;20028;-76
2022/04/08 03:34:57;;;;;;;1.35;0.30;;;10.80;81.10;;;;;;5072785;28;20025;-76
2022/04/08 03:37:26;;;;;;;1.40;0.50;;;10.80;81.20;;;;;;5064830;28;20035;-78
2022/04/08 03:39:53;;;;;;;1.67;0.47;;;10.90;81.30;;;;;;5076255;28;20032;-78
2022/04/08 03:42:18;;;;;;;3.13;0.52;;;10.80;81.10;;;;;;5058529;28;20035;-78
2022/04/08 03:44:44;;;;;;;1.95;0.50;;;10.80;80.90;;;;;;5055966;28;20037;-78
2022/04/08 03:47:09;;;;;;;2.90;0.60;;;10.80;80.90;;;;;;5074185;28;20036;-78
2022/04/08 03:49:36;;;;;;;1.35;0.55;;;10.80;80.70;;;;;;5055434;28;20029;-75
2022/04/08 03:52:04;;;;;;;2.25;0.50;;;10.80;80.90;;;;;;5072167;28;20020;-76
2022/04/08 03:54:30;;;;;;;2.70;0.55;;;10.80;80.60;;;;;;5054548;28;20043;-77
2022/04/08 03:56:56;;;;;;;2.03;0.70;;;10.80;80.60;;;;;;5054119;28;20103;-77
2022/04/08 03:59:22;;;;;;;3.40;0.60;;;10.80;80.60;;;;;;5072824;28;20042;-76
2022/04/08 04:01:49;;;;;;;1.73;0.55;;;10.80;80.50;;;;;;5054877;28;20028;-76
2022/04/08 04:04:15;;;;;;;1.00;0.40;;;10.80;80.50;;;;;;5072219;28;20029;-76
2022/04/08 04:06:41;;;;;;;2.10;0.57;;;10.80;80.60;;;;;;5070987;28;20028;-76
2022/04/08 04:09:06;;;;;;;2.53;0.45;;;10.80;80.40;;;;;;5072254;28;20042;-77
2022/04/08 04:11:33;;;;;;;2.92;0.60;;;10.80;80.20;;;;;;5072535;28;20440;-76
2022/04/08 04:13:59;;;;;;;1.70;0.50;;;10.80;80.30;;;;;;5054646;28;20431;-77
2022/04/08 04:16:25;;;;;;;2.20;0.40;;;10.80;80.20;;;;;;5070371;28;20029;-76
2022/04/08 04:18:50;;;;;;;3.08;0.70;;;10.80;80.20;;;;;;5054575;28;20031;-76
2022/04/08 04:21:16;;;;;;;1.52;0.43;;;10.80;80.10;;;;;;5053814;28;20500;-76
2022/04/08 04:23:41;;;;;;;1.95;0.70;;;10.80;80.20;;;;;;5054572;28;20055;-77
2022/04/08 04:26:07;;;;;;;3.35;0.57;;;10.70;80.20;;;;;;5069925;28;20032;-76
2022/04/08 04:28:33;;;;;;;2.95;0.70;;;10.80;80.20;;;;;;5053387;28;20436;-77
2022/04/08 04:30:59;;;;;;;1.90;0.50;;;10.80;80.10;;;;;;5053335;28;20025;-77
2022/04/08 04:33:25;;;;;;;1.55;0.77;;;10.80;80.10;;;;;;5054167;28;20060;-77
2022/04/08 04:35:51;;;;;;;2.78;0.52;;;10.80;80.10;;;;;;5052988;28;20051;-77
2022/04/08 04:38:16;;;;;;;2.28;0.60;;;10.80;80.00;;;;;;5068270;28;20028;-77
2022/04/08 04:40:42;;;;;;;1.55;0.70;;;10.80;80.10;;;;;;5071816;28;20408;-77
2022/04/08 04:43:07;;;;;;;2.72;0.85;;;10.80;80.10;;;;;;5072080;28;20025;-76
2022/04/08 04:45:34;;;;;;;2.83;0.57;;;10.80;80.00;;;;;;5039810;28;20468;-77
2022/04/08 04:48:00;;;;;;;4.07;0.85;;;10.80;80.10;;;;;;5071529;28;20020;-77
2022/04/08 04:50:26;;;;;;;5.90;0.85;;;10.80;80.00;;;;;;5071822;28;20139;-76
2022/04/08 04:52:51;;;;;;;3.85;0.85;;;10.80;80.00;;;;;;5052499;28;20222;-77
2022/04/08 04:55:17;;;;;;;3.78;0.70;;;10.80;80.00;;;;;;5060243;28;20112;-77
2022/04/08 04:57:42;;;;;;;2.63;0.60;;;10.80;80.10;;;;;;5084102;28;20043;-76
2022/04/08 05:00:09;;;;;;;3.65;0.80;;;10.80;80.10;;;;;;5081313;28;20419;-75
2022/04/08 05:02:35;;;;;;;2.63;0.70;;;10.80;80.10;;;;;;5045433;28;20021;-75
2022/04/08 05:05:01;;;;;;;3.33;0.70;;;10.80;80.10;;;;;;5079354;28;20025;-76
2022/04/08 05:07:26;;;;;;;2.88;0.90;;;10.80;80.10;;;;;;5070322;28;20161;-76
2022/04/08 05:09:52;;;;;;;3.42;0.70;;;10.80;80.10;;;;;;5050106;28;20071;-76
2022/04/08 05:12:17;;;;;;;4.28;1.00;;;10.70;80.10;;;;;;5047510;28;20038;-76
2022/04/08 05:14:43;;;;;;;3.50;0.93;;;10.80;80.10;;;;;;5050306;28;20043;-76
2022/04/08 05:17:08;;;;;;;3.05;0.70;;;10.80;80.00;;;;;;5064324;28;20028;-76
2022/04/08 05:19:34;;;;;;;4.38;1.05;;;10.80;80.00;;;;;;5048182;28;20035;-76
2022/04/08 05:21:59;;;;;;;3.35;0.70;;;10.80;79.90;;;;;;5047038;28;20401;-76
2022/04/08 05:24:25;;;;;;;3.50;0.90;;;10.80;80.10;;;;;;5048983;28;20098;-76
2022/04/08 05:26:50;;;;;;;3.20;0.70;;;10.80;79.90;;;;;;5048465;28;20497;-76
2022/04/08 05:29:16;;;;;;;4.25;0.90;;;10.70;79.90;;;;;;5049953;28;20031;-77
2022/04/08 05:31:41;;;;;;;4.93;0.93;;;10.70;79.50;;;;;;5067195;28;20032;-74
2022/04/08 05:34:07;;;;;;;3.70;1.08;;;10.80;79.00;;;;;;5047700;28;20032;-76
2022/04/08 05:36:32;;;;;;;4.57;0.80;;;10.70;79.00;;;;;;5048556;28;20037;-76
2022/04/08 05:38:58;;;;;;;4.60;1.05;;;10.70;79.10;;;;;;5067247;28;20032;-76
2022/04/08 05:41:23;;;;;;;7.20;1.35;;;10.70;79.20;;;;;;5049804;28;20109;-76
2022/04/08 05:43:49;;;;;;;5.82;1.00;;;10.70;79.30;;;;;;5048995;28;20036;-76
2022/04/08 05:46:15;;;;;;;5.47;1.13;;;10.80;79.30;;;;;;5049366;28;20128;-75
2022/04/08 05:48:41;;;;;;;4.25;1.20;;;10.80;79.30;;;;;;5049543;28;20174;-76
2022/04/08 05:51:07;;;;;;;4.82;0.90;;;10.80;79.30;;;;;;5066599;28;20111;-76
2022/04/08 05:53:32;;;;;;;5.97;1.10;;;10.80;79.40;;;;;;5046756;28;20025;-75
2022/04/08 05:55:59;;;;;;;5.85;1.08;;;10.80;79.40;;;;;;5065230;28;20027;-76
2022/04/08 05:58:25;;;;;;;6.63;1.50;;;10.80;79.60;;;;;;5064645;28;20032;-75
2022/04/08 06:00:50;;;;;;;4.38;1.40;;;10.80;79.50;;;;;;5047096;28;20074;-76
2022/04/08 06:03:16;;;;;;;5.25;1.08;;;10.90;79.30;;;;;;5065119;28;20466;-75
2022/04/08 06:05:42;;;;;;;5.25;1.20;;;10.80;79.20;;;;;;5047147;28;20035;-77
2022/04/08 06:08:08;;;;;;;7.88;1.27;;;10.80;79.00;;;;;;5065017;28;20106;-75
2022/04/08 06:10:34;;;;;;;5.72;1.55;;;10.90;79.10;;;;;;5065147;28;20032;-76
2022/04/08 06:13:01;;;;;;;5.35;1.52;;;10.80;79.00;;;;;;5064480;28;20409;-76
2022/04/08 06:15:27;;;;;;;6.00;1.10;;;10.80;78.90;;;;;;5064850;28;20029;-76
2022/04/08 06:17:54;;;;;;;6.15;1.17;;;10.90;78.90;;;;;;5048623;28;20024;-74
2022/04/08 06:20:20;;;;;;;5.70;1.30;;;10.90;78.80;;;;;;5068393;28;20027;-76
2022/04/08 06:22:47;;;;;;;3.97;1.08;;;10.90;78.70;;;;;;5050360;28;20024;-75
2022/04/08 06:25:15;;;;;;;6.25;1.27;;;10.90;78.60;;;;;;5050523;28;20089;-76
2022/04/08 06:27:44;;;;;;;5.80;1.42;;;10.90;78.50;;;;;;5068366;28;20040;-76
2022/04/08 06:30:11;;;;;;;5.43;1.35;;;10.90;78.50;;;;;;5050023;28;20061;-76
2022/04/08 06:32:38;;;;;;;5.13;1.30;;;11.00;78.60;;;;;;5068207;28;20115;-76
2022/04/08 06:35:04;;;;;;;6.28;1.30;;;11.00;78.40;;;;;;5050179;28;20055;-76
2022/04/08 06:37:30;;;;;;;5.18;1.30;;;11.00;78.10;;;;;;5068055;28;20116;-75
2022/04/08 06:39:56;;;;;;;5.65;1.23;;;11.00;78.10;;;;;;5050120;28;20108;-76
2022/04/08 06:42:22;;;;;;;5.05;1.10;;;11.00;78.10;;;;;;5050016;28;20035;-75
2022/04/08 06:44:48;;;;;;;6.68;1.60;;;11.10;78.00;;;;;;5066818;28;20029;-76
2022/04/08 06:47:13;;;;;;;5.47;1.48;;;11.10;78.00;;;;;;5066249;28;20031;-76
2022/04/08 06:49:44;;;;;;;4.25;1.10;;;11.10;77.80;;;;;;5050207;28;20393;-76
2022/04/08 06:52:11;;;;;;;8.57;1.80;;;11.10;77.80;;;;;;5068149;28;20021;-76
2022/04/08 06:54:37;;;;;;;5.25;1.17;;;11.20;77.70;;;;;;5067874;28;20812;-75
2022/04/08 06:57:03;;;;;;;8.43;1.65;;;11.20;77.80;;;;;;5049682;28;20032;-76
2022/04/08 06:59:28;;;;;;;5.55;1.65;;;11.20;77.80;;;;;;5049211;28;20024;-74
2022/04/08 07:01:54;;;;;;;6.22;1.38;;;11.10;77.80;;;;;;5067854;28;20808;-76
2022/04/08 07:04:19;;;;;;;6.75;1.50;;;11.20;77.70;;;;;;5049521;28;20035;-74
2022/04/08 07:06:45;;;;;;;6.20;1.55;;;11.20;77.90;;;;;;5067588;28;20036;-76
2022/04/08 07:09:11;;;;;;;4.80;1.20;;;11.20;77.90;;;;;;5049509;28;20263;-76
2022/04/08 07:11:36;;;;;;;6.32;1.42;;;11.10;77.80;;;;;;5048570;28;20035;-76
2022/04/08 07:14:02;;;;;;;7.45;1.55;;;11.20;77.80;;;;;;5042984;28;20036;-77
2022/04/08 07:16:27;;;;;;;7.55;1.73;;;11.20;77.70;;;;;;5049431;28;20397;-76
2022/04/08 07:18:53;;;;;;;7.22;1.60;;;11.20;77.70;;;;;;5049277;28;20462;-76
2022/04/08 07:21:19;;;;;;;5.43;1.33;;;11.20;77.60;;;;;;5067463;28;20067;-75
2022/04/08 07:23:44;;;;;;;6.95;1.42;;;11.30;77.60;;;;;;5049565;28;20035;-76
2022/04/08 07:26:11;;;;;;;6.88;2.13;;;11.20;77.60;;;;;;5049061;28;20515;-74
2022/04/08 07:31:59;;;;;;;9.15;2.05;;;11.30;77.50;;;;;;5074404;28;20031;-76
2022/04/08 07:34:24;;;;;;;7.10;1.58;;;11.30;77.20;;;;;;5066905;28;20024;-75
2022/04/08 07:36:50;;;;;;;5.18;1.73;;;11.30;77.40;;;;;;5066739;28;20610;-76
2022/04/08 07:39:15;;;;;;;7.00;1.38;;;11.30;77.30;;;;;;5049408;28;20036;-77
2022/04/08 07:41:41;;;;;;;5.28;1.30;;;11.30;77.40;;;;;;5066972;28;20091;-75
2022/04/08 07:44:06;;;;;;;7.55;1.45;;;11.30;77.50;;;;;;5049088;28;20123;-75
2022/04/08 07:46:32;;;;;;;8.75;1.80;;;11.20;77.50;;;;;;5048406;28;20960;-75
2022/04/08 07:48:57;;;;;;;6.45;1.58;;;11.20;77.30;;;;;;5048935;28;20051;-76
2022/04/08 07:51:23;;;;;;;6.15;1.63;;;11.20;77.40;;;;;;5067094;28;20549;-77
2022/04/08 07:53:48;;;;;;;5.75;1.85;;;11.20;77.20;;;;;;5066713;28;20043;-76
2022/04/08 07:56:14;;;;;;;6.80;1.55;;;11.20;77.40;;;;;;5047574;28;20033;-76
2022/04/08 07:58:39;;;;;;;5.28;1.50;;;11.20;77.50;;;;;;5066421;28;20028;-76
2022/04/08 08:01:05;;;;;;;6.88;1.67;;;11.20;77.40;;;;;;5048878;28;20397;-77
2022/04/08 08:03:34;;;;;;;6.70;1.88;;;11.20;77.30;;;;;;5066086;28;20036;-75
2022/04/08 08:06:01;;;;;;;8.48;1.85;;;11.20;77.50;;;;;;5066153;28;20069;-75
2022/04/08 08:08:26;;;;;;;5.70;1.52;;;11.20;77.30;;;;;;5048539;28;20032;-76
2022/04/08 08:10:52;;;;;;;6.55;1.80;;;11.20;77.20;;;;;;5048433;28;20043;-75
2022/04/08 08:13:17;;;;;;;5.80;1.70;;;11.30;77.30;;;;;;5047462;28;20032;-76
2022/04/08 08:15:43;;;;;;;6.03;1.63;;;11.30;77.40;;;;;;5065125;28;20032;-76
2022/04/08 08:18:09;;;;;;;6.20;1.70;;;11.40;77.10;;;;;;5065866;28;20066;-75
2022/04/08 08:20:34;;;;;;;7.32;1.60;;;11.40;76.90;;;;;;5066309;28;20614;-76
2022/04/08 08:23:00;;;;;;;5.65;1.60;;;11.40;77.10;;;;;;5047906;28;20075;-74
2022/04/08 08:25:26;;;;;;;7.70;1.80;;;11.40;77.10;;;;;;5066626;28;20064;-79
2022/04/08 08:27:53;;;;;;;6.28;1.73;;;11.40;76.90;;;;;;5048201;28;20021;-76
2022/04/08 08:30:19;;;;;;;5.13;1.70;;;11.40;76.90;;;;;;5066160;28;20024;-78
2022/04/08 08:32:47;;;;;;;5.47;1.55;;;11.50;76.80;;;;;;5064797;28;20031;-76
2022/04/08 08:35:14;;;;;;;6.43;1.60;;;11.50;76.50;;;;;;5065737;28;20032;-76
2022/04/08 08:37:40;;;;;;;6.50;2.00;;;11.50;76.50;;;;;;5048015;28;20021;-76
2022/04/08 08:40:08;;;;;;;5.75;1.70;;;11.50;76.50;;;;;;5047021;28;20024;-75
2022/04/08 08:42:36;;;;;;;5.85;1.70;;;11.50;76.50;;;;;;5047516;28;20032;-75
2022/04/08 08:45:02;;;;;;;5.28;1.58;;;11.60;76.30;;;;;;5047766;28;20032;-76
2022/04/08 08:47:30;;;;;;;4.55;1.58;;;11.60;76.30;;;;;;5047048;28;20047;-75
2022/04/08 08:49:56;;;;;;;6.20;1.73;;;11.60;76.30;;;;;;5047956;28;20029;-77
2022/04/08 08:52:22;;;;;;;7.20;2.25;;;11.70;76.30;;;;;;5065421;28;20031;-77
2022/04/08 08:54:48;;;;;;;6.43;1.77;;;11.70;76.30;;;;;;5047672;28;20190;-76
2022/04/08 08:57:19;;;;;;;7.70;2.13;;;11.60;76.30;;;;;;5065372;28;20561;-75
2022/04/08 08:59:45;;;;;;;6.03;1.77;;;11.60;76.30;;;;;;5047586;28;20035;-76
2022/04/08 09:02:16;;;;;;;6.13;1.80;;;11.70;76.30;;;;;;5047394;28;20058;-76
2022/04/08 09:04:42;;;;;;;5.05;1.48;;;11.60;76.20;;;;;;5045801;28;20021;-76
2022/04/08 09:07:25;;;;;;;6.10;1.98;;;11.60;76.20;;;;;;5039869;28;20032;-77
2022/04/08 09:09:54;;;;;;;5.18;1.60;;;11.60;76.00;;;;;;5047694;28;20060;-76
2022/04/08 09:12:23;;;;;;;6.07;1.80;;;11.60;76.00;;;;;;5047758;28;20073;-76
2022/04/08 09:14:50;;;;;;;5.00;1.60;;;11.60;76.00;;;;;;5065293;28;20024;-75
2022/04/08 09:17:18;;;;;;;5.60;1.70;;;11.70;76.00;;;;;;5048167;28;20028;-75
2022/04/08 09:19:47;;;;;;;7.40;2.03;;;11.70;76.10;;;;;;5047977;28;20044;-76
2022/04/08 09:22:12;;;;;;;10.43;2.17;;;11.60;75.80;;;;;;5047784;28;20497;-76
2022/04/08 09:24:38;;;;;;;22.20;3.08;;;11.60;74.80;;;;;;5066268;28;20066;-76
2022/04/08 09:27:03;;;;;;;12.65;2.30;;;11.60;74.10;;;;;;5047364;28;20102;-76
2022/04/08 09:29:29;;;;;;;13.50;2.33;;;11.60;74.30;;;;;;5040908;28;20048;-75
2022/04/08 09:31:57;;;;;;;15.70;2.42;;;11.60;74.40;;;;;;5041875;28;20119;-75
2022/04/08 09:34:23;;;;;;;11.52;2.78;;;11.70;74.60;;;;;;5052775;28;20103;-77
2022/04/08 09:36:49;;;;;;;11.05;2.08;;;11.60;74.60;;;;;;5050307;28;20099;-75
2022/04/08 09:39:16;;;;;;;12.85;2.13;;;11.60;74.70;;;;;;5074305;28;20020;-76
2022/04/08 09:41:43;;;;;;;10.23;1.90;;;11.70;74.80;;;;;;5076782;28;20122;-76
2022/04/08 09:44:13;;;;;;;9.80;2.40;;;11.70;75.00;;;;;;5053445;28;20682;-79
2022/04/08 09:46:39;;;;;;;7.63;1.90;;;11.60;75.00;;;;;;5038442;28;20059;-76
2022/04/08 09:49:06;;;;;;;8.20;1.85;;;11.60;74.80;;;;;;5066056;28;20024;-76
2022/04/08 09:51:40;;;;;;;9.95;2.00;;;11.60;74.80;;;;;;5067293;28;20439;-74
2022/04/08 09:54:08;;;;;;;11.38;1.85;;;11.60;74.70;;;;;;5087571;28;20037;-76
2022/04/08 09:56:36;;;;;;;7.80;1.65;;;11.70;74.80;;;;;;5088839;28;20208;-76
2022/04/08 09:59:11;;;;;;;7.70;1.83;;;11.70;74.80;;;;;;5071331;28;20032;-76
2022/04/08 10:01:37;;;;;;;7.50;1.67;;;11.70;74.90;;;;;;5070776;28;20028;-77
2022/04/08 10:04:07;;;;;;;7.93;1.70;;;11.60;74.70;;;;;;5053482;28;20116;-76
2022/04/08 10:06:35;;;;;;;7.22;1.90;;;11.60;74.70;;;;;;5050650;28;20712;-77
2022/04/08 10:09:01;;;;;;;7.97;1.77;;;11.70;74.80;;;;;;5050744;28;20032;-76
2022/04/08 10:11:40;;;;;;;6.15;1.40;;;11.70;74.70;;;;;;5068942;28;20481;-76
2022/04/08 10:14:43;;;;;;;7.10;1.55;;;11.60;74.60;;;;;;5068455;28;20099;-75
2022/04/08 10:17:09;;;;;;;10.80;2.15;;;11.70;74.40;;;;;;5047453;28;20393;-75
2022/04/08 10:19:35;;;;;;;8.27;1.63;;;11.70;74.20;;;;;;5049894;28;20412;-76
2022/04/08 10:22:01;;;;;;;12.45;2.92;;;11.70;74.40;;;;;;5051027;28;20024;-76
2022/04/08 10:24:29;;;;;;;7.43;1.40;;;11.70;74.40;;;;;;5050602;28;20047;-76
2022/04/08 10:27:05;;;;;;;5.15;1.52;;;11.70;74.10;;;;;;5068728;28;20117;-76
2022/04/08 10:29:35;;;;;;;6.70;1.70;;;11.70;74.10;;;;;;5050777;28;20058;-76
2022/04/08 10:32:04;;;;;;;6.68;1.48;;;11.70;74.20;;;;;;5050074;28;20098;-77
2022/04/08 10:34:33;;;;;;;8.25;2.10;;;11.70;74.10;;;;;;5070184;28;20021;-77
2022/04/08 10:37:01;;;;;;;7.13;1.77;;;11.70;74.00;;;;;;5051843;28;20029;-77
2022/04/08 10:39:27;;;;;;;10.00;1.85;;;11.70;74.20;;;;;;5052606;28;20088;-76
2022/04/08 10:41:56;;;;;;;4.82;1.33;;;11.70;74.40;;;;;;5070071;28;20162;-78
2022/04/08 10:44:35;;;;;;;6.47;1.58;;;11.70;74.30;;;;;;5052900;28;20036;-77
2022/04/08 10:47:23;;;;;;;7.53;1.48;;;11.70;74.40;;;;;;5070684;28;20390;-76
2022/04/08 10:50:03;;;;;;;5.45;1.30;;;11.70;74.30;;;;;;5071023;28;20523;-74
2022/04/08 10:52:30;;;;;;;5.18;1.42;;;11.70;74.20;;;;;;5052409;28;20880;-77
2022/04/08 10:55:11;;;;;;;5.95;1.60;;;11.60;74.40;;;;;;5069643;28;20034;-77
2022/04/08 10:57:45;;;;;;;7.05;2.03;;;11.60;71.30;;;;;;5048787;28;20047;-76
2022/04/08 11:00:13;;;;;;;5.43;1.65;;;11.50;68.10;;;;;;5037145;28;20157;-75
2022/04/08 11:02:41;;;;;;;7.05;1.70;;;11.50;68.30;;;;;;5052067;28;20417;-78
2022/04/08 11:05:08;;;;;;;96.32;9.20;;;11.50;67.60;;;;;;5050793;28;20520;-76
2022/04/08 11:07:34;;;;;;;1238.10;115.88;;;11.50;67.20;;;;;;5069006;28;20067;-76
2022/04/08 11:10:02;;;;;;;1261.95;119.13;;;11.50;66.40;;;;;;5067862;28;20028;-77
2022/04/08 11:12:30;;;;;;;773.83;63.80;;;11.60;66.70;;;;;;5049821;28;20032;-75
2022/04/08 11:14:58;;;;;;;589.90;44.45;;;11.50;67.20;;;;;;5050880;28;20443;-78
2022/04/08 11:17:33;;;;;;;241.70;16.95;;;11.50;66.20;;;;;;5051009;28;20028;-77
2022/04/08 11:19:59;;;;;;;200.00;13.57;;;11.40;66.40;;;;;;5069537;28;20031;-77
2022/04/08 11:22:25;;;;;;;201.02;12.02;;;11.40;63.90;;;;;;5051362;28;20109;-77
2022/04/08 11:24:55;;;;;;;146.27;10.80;;;11.40;62.90;;;;;;5069247;28;20174;-78
2022/04/08 11:27:21;;;;;;;206.05;13.23;;;11.40;64.60;;;;;;5070023;28;20067;-77
2022/04/08 11:29:47;;;;;;;261.63;20.88;;;11.40;66.20;;;;;;5072437;28;20016;-78
2022/04/08 11:32:13;;;;;;;339.13;23.58;;;11.50;67.50;;;;;;5073391;28;20401;-78
2022/04/08 11:34:38;;;;;;;253.75;19.85;;;11.50;68.40;;;;;;5073946;28;20033;-77
2022/04/08 11:37:04;;;;;;;292.98;21.85;;;11.50;69.10;;;;;;5056839;28;20074;-78
2022/04/08 11:39:32;;;;;;;266.27;20.85;;;11.50;69.10;;;;;;5057579;28;20024;-76
2022/04/08 11:42:01;;;;;;;247.75;17.75;;;11.50;69.70;;;;;;5056959;28;20044;-79
2022/04/08 11:44:28;;;;;;;214.70;18.17;;;11.50;70.00;;;;;;5057231;28;20086;-77
2022/04/08 11:47:07;;;;;;;228.65;18.35;;;11.50;70.30;;;;;;5057355;28;20028;-76
2022/04/08 11:49:33;;;;;;;219.55;18.92;;;11.50;70.50;;;;;;5057525;28;20113;-77
2022/04/08 11:52:06;;;;;;;181.43;16.80;;;11.50;70.80;;;;;;5075160;28;20632;-77
2022/04/08 11:54:39;;;;;;;155.90;14.23;;;11.50;70.80;;;;;;5057050;28;20062;-78
2022/04/08 11:57:07;;;;;;;134.75;13.27;;;11.50;71.10;;;;;;5074935;28;20039;-77
2022/04/08 11:59:33;;;;;;;138.07;12.60;;;11.50;71.30;;;;;;5075256;28;20135;-77
2022/04/08 12:01:59;;;;;;;139.02;12.68;;;11.40;71.60;;;;;;5056923;28;20078;-77
2022/04/08 12:04:26;;;;;;;124.32;12.10;;;11.50;71.60;;;;;;5056407;28;20029;-77
2022/04/08 12:06:52;;;;;;;108.00;10.63;;;11.40;71.60;;;;;;5073287;28;20066;-78
2022/04/08 12:09:18;;;;;;;104.72;11.63;;;11.40;71.90;;;;;;5054794;28;20106;-78
2022/04/08 12:11:45;;;;;;;91.90;9.65;;;11.40;71.70;;;;;;5055192;28;20029;-77
2022/04/08 12:14:11;;;;;;;91.45;8.55;;;11.40;71.90;;;;;;5035379;28;20028;-77
2022/04/08 12:16:38;;;;;;;92.10;9.15;;;11.40;72.10;;;;;;5052919;28;20111;-77
2022/04/08 12:19:05;;;;;;;83.13;8.60;;;11.50;71.90;;;;;;5057598;28;20051;-77
2022/04/08 12:21:31;;;;;;;84.15;8.25;;;11.50;72.00;;;;;;5057281;28;20144;-77
2022/04/08 12:24:03;;;;;;;189.48;16.58;;;11.50;72.30;;;;;;5057246;28;20028;-77
2022/04/08 12:26:32;;;;;;;152.43;13.73;;;11.50;72.40;;;;;;5056510;28;20024;-77
2022/04/08 12:29:13;;;;;;;131.90;10.85;;;11.50;72.50;;;;;;5056805;28;20044;-76
2022/04/08 12:31:54;;;;;;;;;;;11.50;72.70;;;;;;5054942;28;20044;-76
2022/04/08 12:34:20;;;;;;;102.35;9.52;;;11.50;72.50;;;;;;5055022;28;19908;-76
2022/04/08 12:36:48;;;;;;;77.75;7.30;;;11.50;72.90;;;;;;5052876;28;20123;-76
2022/04/08 12:39:14;;;;;;;58.45;6.65;;;11.40;71.90;;;;;;5072122;28;20032;-77
2022/04/08 12:41:45;;;;;;;68.00;6.43;;;11.40;71.80;;;;;;5053768;28;20099;-77
2022/04/08 12:44:11;;;;;;;65.35;5.97;;;11.40;71.80;;;;;;5071818;28;20397;-79